CDT,Max TemperatureF,Mean TemperatureF,Min TemperatureF,Max Dew PointF,MeanDew PointF,Min DewpointF,Max Humidity, Mean Humidity, Min Humidity, Max Sea Level PressureIn, Mean Sea Level PressureIn, Min Sea Level PressureIn, Max VisibilityMiles, Mean VisibilityMiles, Min VisibilityMiles, Max Wind SpeedMPH, Mean Wind SpeedMPH, Max Gust SpeedMPH,PrecipitationIn, CloudCover, Events, WindDirDegrees
2013-8-1,80,68,55,55,53,48,94,64,36,30.08,30.01,29.92,10,10,7,10,2,,0.00,1,,261
2013-8-2,75,64,53,55,51,45,94,63,34,30.09,29.99,29.91,10,10,10,10,3,,0.00,0,,346
2013-8-3,77,64,51,55,48,41,88,60,29,30.24,30.18,30.10,10,10,10,12,3,,0.00,0,,331
2013-8-4,73,63,53,57,52,46,88,67,47,30.27,30.16,29.98,10,10,10,9,4,,0.00,1,Thunderstorm,114
2013-8-5,78,69,60,66,61,55,94,80,57,30.04,29.90,29.85,10,10,2,17,5,22,1.66,4,Rain-Thunderstorm,256
2013-8-6,82,70,57,66,60,55,94,77,51,29.88,29.80,29.72,10,9,5,26,4,41,0.13,1,Rain-Thunderstorm,218
2013-8-7,73,65,57,61,53,46,94,67,38,30.05,29.99,29.86,10,10,4,12,6,,0.00,1,,348
2013-8-8,73,65,57,63,57,52,94,78,57,30.09,30.04,30.01,10,10,5,6,2,,0.09,3,Rain,205
2013-8-9,73,63,53,57,52,46,94,69,41,30.16,30.10,30.05,10,9,2,18,5,24,0.00,1,,305
2013-8-10,73,62,51,61,53,48,94,70,46,30.22,30.17,30.09,10,10,7,6,1,,0.00,2,,159
2013-8-11,78,70,62,64,60,57,94,73,47,30.10,30.07,30.04,10,10,7,6,2,,0.00,3,,48
2013-8-12,77,64,51,59,54,48,94,67,36,30.12,30.09,30.06,10,10,5,13,5,16,0.00,0,,333
2013-8-13,73,63,53,57,51,45,94,66,36,30.23,30.19,30.12,10,10,10,8,4,,0.00,1,,26
2013-8-14,75,62,50,57,50,43,88,65,31,30.23,30.18,30.12,10,10,10,7,1,,0.00,0,,212
2013-8-15,75,64,53,59,55,50,94,72,44,30.16,30.13,30.10,10,9,3,7,1,,0.00,1,,194
2013-8-16,75,62,50,61,54,48,94,72,44,30.21,30.18,30.16,10,8,0,9,1,17,0.00,2,Fog,171
2013-8-17,80,66,53,59,55,52,94,68,44,30.19,30.15,30.10,10,10,7,12,4,17,0.00,0,,168
2013-8-18,80,68,57,59,56,54,88,65,44,30.12,30.07,30.00,10,10,10,9,5,,0.00,2,,174
2013-8-19,86,75,64,70,64,57,88,69,55,30.03,29.94,29.88,10,10,7,8,3,16,0.01,3,Rain,173
2013-8-20,87,76,66,73,70,64,94,77,58,29.90,29.88,29.85,10,7,2,10,4,,0.00,0,,154
2013-8-21,89,79,69,73,66,55,94,70,38,30.05,29.92,29.83,10,7,2,9,4,,0.00,1,Thunderstorm,22
2013-8-22,82,72,60,57,50,43,82,47,25,30.17,30.13,30.05,10,10,7,15,7,26,0.00,0,,51
2013-8-23,84,70,57,68,60,48,82,68,55,30.15,30.09,30.01,10,10,10,14,6,21,0.00,0,,126
2013-8-24,87,79,71,72,68,64,83,70,49,30.03,29.96,29.89,10,10,7,18,10,28,0.01,0,Rain-Thunderstorm,159
2013-8-25,91,83,75,73,71,64,83,68,52,30.00,29.96,29.93,10,10,2,13,5,50,0.23,1,Rain-Thunderstorm,195
2013-8-26,91,81,71,73,72,70,94,73,52,29.98,29.93,29.83,10,9,4,12,3,17,0.00,0,,170
2013-8-27,91,82,73,75,72,68,94,74,55,29.95,29.86,29.81,10,9,5,9,4,,0.00,0,,72
2013-8-28,86,78,69,73,71,66,94,78,62,30.05,29.99,29.95,10,10,7,15,6,18,0.00,0,,99
2013-8-29,89,81,73,73,70,64,94,71,43,30.00,29.93,29.86,10,8,0,9,5,,0.00,1,Fog,166
2013-8-30,84,74,64,72,64,61,94,72,48,29.98,29.93,29.88,10,10,4,12,5,18,0.00,1,,24
2013-8-31,87,73,59,66,62,55,94,75,40,29.94,29.86,29.76,10,9,3,41,3,50,0.59,1,Rain-Thunderstorm,185